sensor_id;sensor_type;location;lat;lon;timestamp;P1;durP1;ratioP1;P2;durP2;ratioP2
5722;SDS011;2886;49.722;8.612;2023-04-23T00:00:14;5.37;;;3.97;;
5722;SDS011;2886;49.722;8.612;2023-04-23T00:02:47;10.37;;;4.03;;
5722;SDS011;2886;49.722;8.612;2023-04-23T00:05:19;4.73;;;3.40;;
5722;SDS011;2886;49.722;8.612;2023-04-23T00:07:47;5.07;;;4.00;;
5722;SDS011;2886;49.722;8.612;2023-04-23T00:10:12;8.37;;;3.70;;
5722;SDS011;2886;49.722;8.612;2023-04-23T00:12:39;4.40;;;3.67;;
5722;SDS011;2886;49.722;8.612;2023-04-23T00:15:05;5.47;;;3.53;;
5722;SDS011;2886;49.722;8.612;2023-04-23T00:17:31;4.97;;;3.30;;
5722;SDS011;2886;49.722;8.612;2023-04-23T00:20:00;9.20;;;4.30;;
5722;SDS011;2886;49.722;8.612;2023-04-23T00:22:26;6.43;;;4.00;;
5722;SDS011;2886;49.722;8.612;2023-04-23T00:24:51;8.30;;;4.30;;
5722;SDS011;2886;49.722;8.612;2023-04-23T00:27:17;4.73;;;3.50;;
5722;SDS011;2886;49.722;8.612;2023-04-23T00:29:45;5.73;;;4.10;;
5722;SDS011;2886;49.722;8.612;2023-04-23T00:32:11;9.93;;;3.97;;
5722;SDS011;2886;49.722;8.612;2023-04-23T00:34:36;7.13;;;3.70;;
5722;SDS011;2886;49.722;8.612;2023-04-23T00:37:02;6.40;;;4.20;;
5722;SDS011;2886;49.722;8.612;2023-04-23T00:39:30;6.13;;;3.93;;
5722;SDS011;2886;49.722;8.612;2023-04-23T00:41:56;9.03;;;4.60;;
5722;SDS011;2886;49.722;8.612;2023-04-23T00:44:24;6.80;;;4.73;;
5722;SDS011;2886;49.722;8.612;2023-04-23T00:46:50;6.87;;;4.67;;
5722;SDS011;2886;49.722;8.612;2023-04-23T00:49:17;8.40;;;3.77;;
5722;SDS011;2886;49.722;8.612;2023-04-23T00:51:43;7.50;;;4.20;;
5722;SDS011;2886;49.722;8.612;2023-04-23T00:54:10;5.00;;;4.17;;
5722;SDS011;2886;49.722;8.612;2023-04-23T00:56:35;6.30;;;4.07;;
5722;SDS011;2886;49.722;8.612;2023-04-23T00:59:03;7.30;;;4.67;;
5722;SDS011;2886;49.722;8.612;2023-04-23T01:01:32;6.80;;;4.17;;
5722;SDS011;2886;49.722;8.612;2023-04-23T01:04:00;8.47;;;5.13;;
5722;SDS011;2886;49.722;8.612;2023-04-23T01:06:26;7.10;;;4.83;;
5722;SDS011;2886;49.722;8.612;2023-04-23T01:08:52;6.20;;;4.57;;
5722;SDS011;2886;49.722;8.612;2023-04-23T01:11:18;7.40;;;4.63;;
5722;SDS011;2886;49.722;8.612;2023-04-23T01:13:44;9.17;;;4.83;;
5722;SDS011;2886;49.722;8.612;2023-04-23T01:16:10;9.70;;;5.53;;
5722;SDS011;2886;49.722;8.612;2023-04-23T01:18:35;8.07;;;4.90;;
5722;SDS011;2886;49.722;8.612;2023-04-23T01:21:02;5.73;;;4.40;;
5722;SDS011;2886;49.722;8.612;2023-04-23T01:23:28;7.20;;;4.40;;
5722;SDS011;2886;49.722;8.612;2023-04-23T01:25:55;5.50;;;4.53;;
5722;SDS011;2886;49.722;8.612;2023-04-23T01:28:21;10.90;;;4.80;;
5722;SDS011;2886;49.722;8.612;2023-04-23T01:30:47;6.00;;;4.67;;
5722;SDS011;2886;49.722;8.612;2023-04-23T01:33:13;9.27;;;5.70;;
5722;SDS011;2886;49.722;8.612;2023-04-23T01:35:40;6.37;;;4.47;;
5722;SDS011;2886;49.722;8.612;2023-04-23T01:38:10;8.03;;;4.80;;
5722;SDS011;2886;49.722;8.612;2023-04-23T01:40:38;11.10;;;5.97;;
5722;SDS011;2886;49.722;8.612;2023-04-23T01:43:04;11.93;;;6.13;;
5722;SDS011;2886;49.722;8.612;2023-04-23T01:45:30;10.20;;;5.37;;
5722;SDS011;2886;49.722;8.612;2023-04-23T01:47:56;6.10;;;5.20;;
5722;SDS011;2886;49.722;8.612;2023-04-23T01:50:22;8.73;;;4.90;;
5722;SDS011;2886;49.722;8.612;2023-04-23T01:52:50;6.00;;;4.50;;
5722;SDS011;2886;49.722;8.612;2023-04-23T01:55:16;5.77;;;4.57;;
5722;SDS011;2886;49.722;8.612;2023-04-23T01:57:43;6.20;;;4.50;;
5722;SDS011;2886;49.722;8.612;2023-04-23T02:00:12;6.00;;;4.83;;
5722;SDS011;2886;49.722;8.612;2023-04-23T02:02:39;6.70;;;4.90;;
5722;SDS011;2886;49.722;8.612;2023-04-23T02:05:16;6.67;;;4.50;;
5722;SDS011;2886;49.722;8.612;2023-04-23T02:07:43;8.87;;;4.47;;
5722;SDS011;2886;49.722;8.612;2023-04-23T02:10:10;6.20;;;4.77;;
5722;SDS011;2886;49.722;8.612;2023-04-23T02:12:36;4.47;;;3.90;;
5722;SDS011;2886;49.722;8.612;2023-04-23T02:15:03;5.10;;;4.30;;
5722;SDS011;2886;49.722;8.612;2023-04-23T02:17:30;6.27;;;4.90;;
5722;SDS011;2886;49.722;8.612;2023-04-23T02:19:56;7.00;;;5.70;;
5722;SDS011;2886;49.722;8.612;2023-04-23T02:22:22;8.27;;;5.27;;
5722;SDS011;2886;49.722;8.612;2023-04-23T02:24:49;8.40;;;5.83;;
5722;SDS011;2886;49.722;8.612;2023-04-23T02:27:16;11.10;;;5.60;;
5722;SDS011;2886;49.722;8.612;2023-04-23T02:29:45;9.90;;;5.10;;
5722;SDS011;2886;49.722;8.612;2023-04-23T02:32:12;10.13;;;5.53;;
5722;SDS011;2886;49.722;8.612;2023-04-23T02:34:37;8.27;;;5.53;;
5722;SDS011;2886;49.722;8.612;2023-04-23T02:37:03;7.87;;;6.00;;
5722;SDS011;2886;49.722;8.612;2023-04-23T02:39:29;10.10;;;6.10;;
5722;SDS011;2886;49.722;8.612;2023-04-23T02:41:55;7.70;;;5.73;;
5722;SDS011;2886;49.722;8.612;2023-04-23T02:44:22;9.13;;;6.10;;
5722;SDS011;2886;49.722;8.612;2023-04-23T02:46:48;10.20;;;5.60;;
5722;SDS011;2886;49.722;8.612;2023-04-23T02:49:14;7.83;;;6.13;;
5722;SDS011;2886;49.722;8.612;2023-04-23T02:51:40;9.73;;;5.60;;
5722;SDS011;2886;49.722;8.612;2023-04-23T02:54:06;7.73;;;6.30;;
5722;SDS011;2886;49.722;8.612;2023-04-23T02:56:31;9.00;;;5.90;;
5722;SDS011;2886;49.722;8.612;2023-04-23T02:58:58;9.40;;;6.00;;
5722;SDS011;2886;49.722;8.612;2023-04-23T03:01:23;9.53;;;7.00;;
5722;SDS011;2886;49.722;8.612;2023-04-23T03:03:49;7.13;;;5.90;;
5722;SDS011;2886;49.722;8.612;2023-04-23T03:06:15;11.40;;;5.63;;
5722;SDS011;2886;49.722;8.612;2023-04-23T03:08:40;11.40;;;6.07;;
5722;SDS011;2886;49.722;8.612;2023-04-23T03:11:06;8.47;;;5.57;;
5722;SDS011;2886;49.722;8.612;2023-04-23T03:13:31;7.60;;;5.03;;
5722;SDS011;2886;49.722;8.612;2023-04-23T03:15:57;7.83;;;5.73;;
5722;SDS011;2886;49.722;8.612;2023-04-23T03:18:23;6.57;;;4.97;;
5722;SDS011;2886;49.722;8.612;2023-04-23T03:20:48;8.30;;;5.27;;
5722;SDS011;2886;49.722;8.612;2023-04-23T03:23:14;7.13;;;4.70;;
5722;SDS011;2886;49.722;8.612;2023-04-23T03:25:40;8.83;;;5.73;;
5722;SDS011;2886;49.722;8.612;2023-04-23T03:28:06;10.90;;;5.80;;
5722;SDS011;2886;49.722;8.612;2023-04-23T03:30:31;8.60;;;5.33;;
5722;SDS011;2886;49.722;8.612;2023-04-23T03:32:57;7.03;;;5.20;;
5722;SDS011;2886;49.722;8.612;2023-04-23T03:35:24;13.60;;;5.83;;
5722;SDS011;2886;49.722;8.612;2023-04-23T03:37:50;7.10;;;5.20;;
5722;SDS011;2886;49.722;8.612;2023-04-23T03:40:16;9.17;;;5.20;;
5722;SDS011;2886;49.722;8.612;2023-04-23T03:42:45;7.20;;;5.30;;
5722;SDS011;2886;49.722;8.612;2023-04-23T03:45:11;7.20;;;4.93;;
5722;SDS011;2886;49.722;8.612;2023-04-23T03:47:38;10.13;;;5.10;;
5722;SDS011;2886;49.722;8.612;2023-04-23T03:50:04;8.43;;;5.00;;
5722;SDS011;2886;49.722;8.612;2023-04-23T03:52:33;8.50;;;5.00;;
5722;SDS011;2886;49.722;8.612;2023-04-23T03:54:58;7.40;;;5.13;;
5722;SDS011;2886;49.722;8.612;2023-04-23T03:57:24;7.57;;;5.50;;
5722;SDS011;2886;49.722;8.612;2023-04-23T03:59:49;7.07;;;4.97;;
5722;SDS011;2886;49.722;8.612;2023-04-23T04:02:16;9.03;;;4.50;;
5722;SDS011;2886;49.722;8.612;2023-04-23T04:04:41;11.23;;;5.00;;
5722;SDS011;2886;49.722;8.612;2023-04-23T04:07:13;5.13;;;4.63;;
5722;SDS011;2886;49.722;8.612;2023-04-23T04:09:39;5.07;;;4.30;;
5722;SDS011;2886;49.722;8.612;2023-04-23T04:12:04;8.00;;;6.50;;
5722;SDS011;2886;49.722;8.612;2023-04-23T04:14:31;7.83;;;4.70;;
5722;SDS011;2886;49.722;8.612;2023-04-23T04:16:57;7.70;;;5.43;;
5722;SDS011;2886;49.722;8.612;2023-04-23T04:19:23;8.10;;;5.87;;
5722;SDS011;2886;49.722;8.612;2023-04-23T04:21:48;7.10;;;5.00;;
5722;SDS011;2886;49.722;8.612;2023-04-23T04:24:15;7.50;;;4.90;;
5722;SDS011;2886;49.722;8.612;2023-04-23T04:26:42;6.87;;;5.10;;
5722;SDS011;2886;49.722;8.612;2023-04-23T04:29:09;7.20;;;5.33;;
5722;SDS011;2886;49.722;8.612;2023-04-23T04:31:35;9.00;;;5.40;;
5722;SDS011;2886;49.722;8.612;2023-04-23T04:34:01;7.20;;;5.23;;
5722;SDS011;2886;49.722;8.612;2023-04-23T04:36:27;6.00;;;4.63;;
5722;SDS011;2886;49.722;8.612;2023-04-23T04:38:53;8.83;;;5.83;;
5722;SDS011;2886;49.722;8.612;2023-04-23T04:41:25;8.03;;;5.33;;
5722;SDS011;2886;49.722;8.612;2023-04-23T04:43:52;6.30;;;4.97;;
5722;SDS011;2886;49.722;8.612;2023-04-23T04:46:22;9.63;;;5.63;;
5722;SDS011;2886;49.722;8.612;2023-04-23T04:48:50;9.13;;;5.13;;
5722;SDS011;2886;49.722;8.612;2023-04-23T04:51:16;7.33;;;5.23;;
5722;SDS011;2886;49.722;8.612;2023-04-23T04:53:42;6.70;;;4.63;;
5722;SDS011;2886;49.722;8.612;2023-04-23T04:56:07;6.80;;;5.20;;
5722;SDS011;2886;49.722;8.612;2023-04-23T04:58:33;7.63;;;4.90;;
5722;SDS011;2886;49.722;8.612;2023-04-23T05:00:59;7.47;;;5.43;;
5722;SDS011;2886;49.722;8.612;2023-04-23T05:03:25;6.40;;;5.03;;
5722;SDS011;2886;49.722;8.612;2023-04-23T05:05:52;5.80;;;4.73;;
5722;SDS011;2886;49.722;8.612;2023-04-23T05:08:20;6.80;;;4.30;;
5722;SDS011;2886;49.722;8.612;2023-04-23T05:10:46;5.80;;;4.23;;
5722;SDS011;2886;49.722;8.612;2023-04-23T05:13:15;6.83;;;4.70;;
5722;SDS011;2886;49.722;8.612;2023-04-23T05:15:41;7.20;;;4.53;;
5722;SDS011;2886;49.722;8.612;2023-04-23T05:18:08;6.43;;;4.47;;
5722;SDS011;2886;49.722;8.612;2023-04-23T05:20:34;5.00;;;4.00;;
5722;SDS011;2886;49.722;8.612;2023-04-23T05:23:00;4.80;;;3.80;;
5722;SDS011;2886;49.722;8.612;2023-04-23T05:25:27;5.33;;;4.23;;
5722;SDS011;2886;49.722;8.612;2023-04-23T05:27:56;4.10;;;3.70;;
5722;SDS011;2886;49.722;8.612;2023-04-23T05:30:22;5.43;;;3.80;;
5722;SDS011;2886;49.722;8.612;2023-04-23T05:32:48;5.20;;;3.70;;
5722;SDS011;2886;49.722;8.612;2023-04-23T05:35:14;9.33;;;3.27;;
5722;SDS011;2886;49.722;8.612;2023-04-23T05:37:40;3.23;;;2.93;;
5722;SDS011;2886;49.722;8.612;2023-04-23T05:40:06;6.37;;;3.57;;
5722;SDS011;2886;49.722;8.612;2023-04-23T05:42:33;3.73;;;3.00;;
5722;SDS011;2886;49.722;8.612;2023-04-23T05:44:59;3.40;;;2.90;;
5722;SDS011;2886;49.722;8.612;2023-04-23T05:47:27;3.27;;;2.97;;
5722;SDS011;2886;49.722;8.612;2023-04-23T05:49:52;4.60;;;3.10;;
5722;SDS011;2886;49.722;8.612;2023-04-23T05:52:18;4.90;;;2.90;;
5722;SDS011;2886;49.722;8.612;2023-04-23T05:54:44;5.00;;;2.73;;
5722;SDS011;2886;49.722;8.612;2023-04-23T05:57:10;3.40;;;2.97;;
5722;SDS011;2886;49.722;8.612;2023-04-23T05:59:36;3.20;;;2.90;;
5722;SDS011;2886;49.722;8.612;2023-04-23T06:02:01;3.20;;;2.90;;
5722;SDS011;2886;49.722;8.612;2023-04-23T06:04:27;4.03;;;2.93;;
5722;SDS011;2886;49.722;8.612;2023-04-23T06:06:53;5.40;;;3.47;;
5722;SDS011;2886;49.722;8.612;2023-04-23T06:09:18;2.90;;;2.60;;
5722;SDS011;2886;49.722;8.612;2023-04-23T06:11:44;4.97;;;2.83;;
5722;SDS011;2886;49.722;8.612;2023-04-23T06:14:09;3.70;;;2.43;;
5722;SDS011;2886;49.722;8.612;2023-04-23T06:16:35;5.43;;;3.03;;
5722;SDS011;2886;49.722;8.612;2023-04-23T06:19:02;3.67;;;2.90;;
5722;SDS011;2886;49.722;8.612;2023-04-23T06:21:27;4.23;;;2.80;;
5722;SDS011;2886;49.722;8.612;2023-04-23T06:23:53;3.90;;;2.63;;
5722;SDS011;2886;49.722;8.612;2023-04-23T06:26:19;3.20;;;2.90;;
5722;SDS011;2886;49.722;8.612;2023-04-23T06:28:44;3.40;;;2.77;;
5722;SDS011;2886;49.722;8.612;2023-04-23T06:31:11;3.73;;;3.00;;
5722;SDS011;2886;49.722;8.612;2023-04-23T06:33:37;3.03;;;2.70;;
5722;SDS011;2886;49.722;8.612;2023-04-23T06:36:03;3.70;;;3.20;;
5722;SDS011;2886;49.722;8.612;2023-04-23T06:38:29;5.57;;;2.70;;
5722;SDS011;2886;49.722;8.612;2023-04-23T06:40:55;6.80;;;2.73;;
5722;SDS011;2886;49.722;8.612;2023-04-23T06:43:21;3.67;;;2.53;;
5722;SDS011;2886;49.722;8.612;2023-04-23T06:45:52;3.63;;;3.07;;
5722;SDS011;2886;49.722;8.612;2023-04-23T06:48:18;5.27;;;3.30;;
5722;SDS011;2886;49.722;8.612;2023-04-23T06:50:46;5.43;;;3.23;;
5722;SDS011;2886;49.722;8.612;2023-04-23T06:53:12;5.87;;;2.93;;
5722;SDS011;2886;49.722;8.612;2023-04-23T06:55:38;4.50;;;3.20;;
5722;SDS011;2886;49.722;8.612;2023-04-23T06:58:21;3.93;;;3.27;;
5722;SDS011;2886;49.722;8.612;2023-04-23T07:00:51;5.80;;;3.33;;
5722;SDS011;2886;49.722;8.612;2023-04-23T07:03:17;5.83;;;3.47;;
5722;SDS011;2886;49.722;8.612;2023-04-23T07:05:43;3.63;;;3.17;;
5722;SDS011;2886;49.722;8.612;2023-04-23T07:08:09;4.90;;;3.03;;
5722;SDS011;2886;49.722;8.612;2023-04-23T07:10:41;4.30;;;3.10;;
5722;SDS011;2886;49.722;8.612;2023-04-23T07:13:07;5.17;;;3.40;;
5722;SDS011;2886;49.722;8.612;2023-04-23T07:15:32;4.03;;;3.50;;
5722;SDS011;2886;49.722;8.612;2023-04-23T07:17:58;4.50;;;2.77;;
5722;SDS011;2886;49.722;8.612;2023-04-23T07:20:24;4.27;;;3.20;;
5722;SDS011;2886;49.722;8.612;2023-04-23T07:22:50;3.60;;;3.30;;
5722;SDS011;2886;49.722;8.612;2023-04-23T07:25:16;4.07;;;3.40;;
5722;SDS011;2886;49.722;8.612;2023-04-23T07:27:42;5.67;;;3.90;;
5722;SDS011;2886;49.722;8.612;2023-04-23T07:30:09;3.13;;;2.90;;
5722;SDS011;2886;49.722;8.612;2023-04-23T07:32:35;3.60;;;3.10;;
5722;SDS011;2886;49.722;8.612;2023-04-23T07:35:00;3.33;;;2.93;;
5722;SDS011;2886;49.722;8.612;2023-04-23T07:37:26;3.23;;;2.93;;
5722;SDS011;2886;49.722;8.612;2023-04-23T07:39:55;3.13;;;2.90;;
5722;SDS011;2886;49.722;8.612;2023-04-23T07:42:23;4.30;;;3.40;;
5722;SDS011;2886;49.722;8.612;2023-04-23T07:44:49;5.70;;;3.57;;
5722;SDS011;2886;49.722;8.612;2023-04-23T07:47:14;3.33;;;2.60;;
5722;SDS011;2886;49.722;8.612;2023-04-23T07:49:40;3.40;;;2.90;;
5722;SDS011;2886;49.722;8.612;2023-04-23T07:52:06;6.00;;;3.40;;
5722;SDS011;2886;49.722;8.612;2023-04-23T07:54:32;3.20;;;2.90;;
5722;SDS011;2886;49.722;8.612;2023-04-23T07:56:58;4.90;;;3.27;;
5722;SDS011;2886;49.722;8.612;2023-04-23T07:59:23;2.70;;;2.50;;
5722;SDS011;2886;49.722;8.612;2023-04-23T08:01:49;3.40;;;3.03;;
5722;SDS011;2886;49.722;8.612;2023-04-23T08:04:15;3.40;;;3.10;;
5722;SDS011;2886;49.722;8.612;2023-04-23T08:06:41;5.60;;;3.50;;
5722;SDS011;2886;49.722;8.612;2023-04-23T08:09:07;3.63;;;2.93;;
5722;SDS011;2886;49.722;8.612;2023-04-23T08:11:33;8.63;;;3.73;;
5722;SDS011;2886;49.722;8.612;2023-04-23T08:13:59;3.30;;;2.90;;
5722;SDS011;2886;49.722;8.612;2023-04-23T08:16:25;4.77;;;3.50;;
5722;SDS011;2886;49.722;8.612;2023-04-23T08:18:51;4.57;;;3.60;;
5722;SDS011;2886;49.722;8.612;2023-04-23T08:21:17;4.60;;;3.33;;
5722;SDS011;2886;49.722;8.612;2023-04-23T08:23:43;7.00;;;3.70;;
5722;SDS011;2886;49.722;8.612;2023-04-23T08:26:08;3.60;;;3.30;;
5722;SDS011;2886;49.722;8.612;2023-04-23T08:28:34;5.83;;;2.90;;
5722;SDS011;2886;49.722;8.612;2023-04-23T08:31:00;6.63;;;3.57;;
5722;SDS011;2886;49.722;8.612;2023-04-23T08:33:25;5.67;;;3.30;;
5722;SDS011;2886;49.722;8.612;2023-04-23T08:35:51;3.23;;;2.93;;
5722;SDS011;2886;49.722;8.612;2023-04-23T08:38:17;5.00;;;3.50;;
5722;SDS011;2886;49.722;8.612;2023-04-23T08:40:42;3.00;;;2.70;;
5722;SDS011;2886;49.722;8.612;2023-04-23T08:43:12;3.50;;;3.17;;
5722;SDS011;2886;49.722;8.612;2023-04-23T08:45:43;4.40;;;3.40;;
5722;SDS011;2886;49.722;8.612;2023-04-23T08:48:11;4.13;;;3.07;;
5722;SDS011;2886;49.722;8.612;2023-04-23T08:50:37;9.13;;;3.90;;
5722;SDS011;2886;49.722;8.612;2023-04-23T08:53:07;5.27;;;3.10;;
5722;SDS011;2886;49.722;8.612;2023-04-23T08:55:33;3.27;;;2.97;;
5722;SDS011;2886;49.722;8.612;2023-04-23T08:58:00;4.93;;;3.13;;
5722;SDS011;2886;49.722;8.612;2023-04-23T09:00:30;4.53;;;3.80;;
5722;SDS011;2886;49.722;8.612;2023-04-23T09:02:56;6.30;;;3.00;;
5722;SDS011;2886;49.722;8.612;2023-04-23T09:05:22;4.17;;;3.30;;
5722;SDS011;2886;49.722;8.612;2023-04-23T09:07:48;3.20;;;2.77;;
5722;SDS011;2886;49.722;8.612;2023-04-23T09:10:14;3.70;;;2.60;;
5722;SDS011;2886;49.722;8.612;2023-04-23T09:12:40;5.30;;;3.30;;
5722;SDS011;2886;49.722;8.612;2023-04-23T09:15:08;3.17;;;2.80;;
5722;SDS011;2886;49.722;8.612;2023-04-23T09:17:37;4.77;;;2.80;;
5722;SDS011;2886;49.722;8.612;2023-04-23T09:20:07;3.50;;;2.60;;
5722;SDS011;2886;49.722;8.612;2023-04-23T09:22:38;2.47;;;2.27;;
5722;SDS011;2886;49.722;8.612;2023-04-23T09:25:09;3.10;;;2.83;;
5722;SDS011;2886;49.722;8.612;2023-04-23T09:27:36;4.20;;;2.27;;
5722;SDS011;2886;49.722;8.612;2023-04-23T09:30:03;4.70;;;2.53;;
5722;SDS011;2886;49.722;8.612;2023-04-23T09:32:31;3.33;;;2.90;;
5722;SDS011;2886;49.722;8.612;2023-04-23T09:35:02;4.50;;;3.20;;
5722;SDS011;2886;49.722;8.612;2023-04-23T09:37:32;2.70;;;2.50;;
5722;SDS011;2886;49.722;8.612;2023-04-23T09:39:59;2.27;;;2.07;;
5722;SDS011;2886;49.722;8.612;2023-04-23T09:42:29;2.93;;;2.13;;
5722;SDS011;2886;49.722;8.612;2023-04-23T09:45:00;5.10;;;2.70;;
5722;SDS011;2886;49.722;8.612;2023-04-23T09:47:33;3.60;;;2.50;;
5722;SDS011;2886;49.722;8.612;2023-04-23T09:50:03;2.73;;;2.40;;
5722;SDS011;2886;49.722;8.612;2023-04-23T09:52:30;2.70;;;2.40;;
5722;SDS011;2886;49.722;8.612;2023-04-23T09:55:00;3.33;;;2.30;;
5722;SDS011;2886;49.722;8.612;2023-04-23T09:57:26;3.40;;;2.10;;
5722;SDS011;2886;49.722;8.612;2023-04-23T09:59:55;4.13;;;2.63;;
5722;SDS011;2886;49.722;8.612;2023-04-23T10:02:26;2.20;;;2.07;;
5722;SDS011;2886;49.722;8.612;2023-04-23T10:04:55;2.50;;;2.10;;
5722;SDS011;2886;49.722;8.612;2023-04-23T10:07:21;2.47;;;2.27;;
5722;SDS011;2886;49.722;8.612;2023-04-23T10:09:47;2.63;;;2.40;;
5722;SDS011;2886;49.722;8.612;2023-04-23T10:12:13;3.37;;;2.27;;
5722;SDS011;2886;49.722;8.612;2023-04-23T10:14:39;2.93;;;2.10;;
5722;SDS011;2886;49.722;8.612;2023-04-23T10:17:06;2.60;;;2.23;;
5722;SDS011;2886;49.722;8.612;2023-04-23T10:19:34;2.37;;;1.87;;
5722;SDS011;2886;49.722;8.612;2023-04-23T10:22:04;2.93;;;2.43;;
5722;SDS011;2886;49.722;8.612;2023-04-23T10:24:35;4.00;;;2.37;;
5722;SDS011;2886;49.722;8.612;2023-04-23T10:27:04;3.67;;;2.27;;
5722;SDS011;2886;49.722;8.612;2023-04-23T10:29:35;2.70;;;2.40;;
5722;SDS011;2886;49.722;8.612;2023-04-23T10:32:02;2.57;;;2.13;;
5722;SDS011;2886;49.722;8.612;2023-04-23T10:34:29;2.87;;;1.97;;
5722;SDS011;2886;49.722;8.612;2023-04-23T10:36:56;2.50;;;2.30;;
5722;SDS011;2886;49.722;8.612;2023-04-23T10:39:26;4.40;;;2.47;;
5722;SDS011;2886;49.722;8.612;2023-04-23T10:41:54;3.30;;;2.30;;
5722;SDS011;2886;49.722;8.612;2023-04-23T10:44:20;3.90;;;2.40;;
5722;SDS011;2886;49.722;8.612;2023-04-23T10:46:50;7.90;;;2.77;;
5722;SDS011;2886;49.722;8.612;2023-04-23T10:49:22;3.20;;;2.10;;
5722;SDS011;2886;49.722;8.612;2023-04-23T10:51:56;3.13;;;2.83;;
5722;SDS011;2886;49.722;8.612;2023-04-23T10:54:27;3.00;;;2.37;;
5722;SDS011;2886;49.722;8.612;2023-04-23T10:57:01;2.60;;;2.40;;
5722;SDS011;2886;49.722;8.612;2023-04-23T10:59:30;3.27;;;2.83;;
5722;SDS011;2886;49.722;8.612;2023-04-23T11:01:57;3.30;;;2.83;;
5722;SDS011;2886;49.722;8.612;2023-04-23T11:04:33;4.00;;;2.53;;
5722;SDS011;2886;49.722;8.612;2023-04-23T11:07:07;2.97;;;2.53;;
5722;SDS011;2886;49.722;8.612;2023-04-23T11:09:40;2.97;;;2.50;;
5722;SDS011;2886;49.722;8.612;2023-04-23T11:14:54;2.60;;;2.40;;
5722;SDS011;2886;49.722;8.612;2023-04-23T11:17:57;3.83;;;2.83;;
5722;SDS011;2886;49.722;8.612;2023-04-23T11:22:44;3.40;;;2.30;;
5722;SDS011;2886;49.722;8.612;2023-04-23T11:25:11;2.93;;;2.20;;
5722;SDS011;2886;49.722;8.612;2023-04-23T11:27:39;5.70;;;2.47;;
5722;SDS011;2886;49.722;8.612;2023-04-23T11:30:16;2.90;;;2.00;;
5722;SDS011;2886;49.722;8.612;2023-04-23T11:32:47;2.70;;;2.03;;
5722;SDS011;2886;49.722;8.612;2023-04-23T11:35:15;5.37;;;2.07;;
5722;SDS011;2886;49.722;8.612;2023-04-23T11:37:43;2.47;;;2.10;;
5722;SDS011;2886;49.722;8.612;2023-04-23T11:40:10;3.30;;;2.00;;
5722;SDS011;2886;49.722;8.612;2023-04-23T11:42:45;2.10;;;1.90;;
5722;SDS011;2886;49.722;8.612;2023-04-23T11:45:16;5.43;;;1.90;;
5722;SDS011;2886;49.722;8.612;2023-04-23T11:47:43;1.70;;;1.60;;
5722;SDS011;2886;49.722;8.612;2023-04-23T11:50:10;1.90;;;1.70;;
5722;SDS011;2886;49.722;8.612;2023-04-23T11:52:42;2.40;;;1.83;;
5722;SDS011;2886;49.722;8.612;2023-04-23T11:55:08;2.23;;;2.03;;
5722;SDS011;2886;49.722;8.612;2023-04-23T11:57:43;3.63;;;1.70;;
5722;SDS011;2886;49.722;8.612;2023-04-23T12:00:17;1.80;;;1.70;;
5722;SDS011;2886;49.722;8.612;2023-04-23T12:05:27;5.30;;;1.63;;
5722;SDS011;2886;49.722;8.612;2023-04-23T12:08:13;2.83;;;1.90;;
5722;SDS011;2886;49.722;8.612;2023-04-23T12:13:17;1.97;;;1.77;;
5722;SDS011;2886;49.722;8.612;2023-04-23T12:15:52;2.90;;;2.33;;
5722;SDS011;2886;49.722;8.612;2023-04-23T12:18:27;2.40;;;2.00;;
5722;SDS011;2886;49.722;8.612;2023-04-23T12:21:15;3.50;;;1.93;;
5722;SDS011;2886;49.722;8.612;2023-04-23T12:23:45;2.03;;;1.60;;
5722;SDS011;2886;49.722;8.612;2023-04-23T12:26:18;1.80;;;1.70;;
5722;SDS011;2886;49.722;8.612;2023-04-23T12:28:54;3.60;;;2.00;;
5722;SDS011;2886;49.722;8.612;2023-04-23T12:31:26;4.27;;;1.90;;
5722;SDS011;2886;49.722;8.612;2023-04-23T12:33:59;2.33;;;1.70;;
5722;SDS011;2886;49.722;8.612;2023-04-23T12:36:30;2.00;;;1.70;;
5722;SDS011;2886;49.722;8.612;2023-04-23T12:42:06;2.27;;;1.50;;
5722;SDS011;2886;49.722;8.612;2023-04-23T12:44:36;2.10;;;1.60;;
5722;SDS011;2886;49.722;8.612;2023-04-23T12:47:03;1.63;;;1.50;;
5722;SDS011;2886;49.722;8.612;2023-04-23T12:49:31;1.57;;;1.47;;
5722;SDS011;2886;49.722;8.612;2023-04-23T12:51:58;2.17;;;1.67;;
5722;SDS011;2886;49.722;8.612;2023-04-23T12:54:31;2.70;;;2.07;;
5722;SDS011;2886;49.722;8.612;2023-04-23T12:57:01;7.23;;;1.93;;
5722;SDS011;2886;49.722;8.612;2023-04-23T12:59:27;4.40;;;1.63;;
5722;SDS011;2886;49.722;8.612;2023-04-23T13:01:57;1.67;;;1.57;;
5722;SDS011;2886;49.722;8.612;2023-04-23T13:04:26;3.83;;;2.20;;
5722;SDS011;2886;49.722;8.612;2023-04-23T13:06:52;2.10;;;1.90;;
5722;SDS011;2886;49.722;8.612;2023-04-23T13:09:21;2.67;;;1.70;;
5722;SDS011;2886;49.722;8.612;2023-04-23T13:11:48;3.97;;;1.80;;
5722;SDS011;2886;49.722;8.612;2023-04-23T13:14:14;2.03;;;1.53;;
5722;SDS011;2886;49.722;8.612;2023-04-23T13:16:43;1.73;;;1.60;;
5722;SDS011;2886;49.722;8.612;2023-04-23T13:19:09;2.03;;;1.63;;
5722;SDS011;2886;49.722;8.612;2023-04-23T13:21:36;2.53;;;1.40;;
5722;SDS011;2886;49.722;8.612;2023-04-23T13:24:02;3.37;;;1.50;;
5722;SDS011;2886;49.722;8.612;2023-04-23T13:26:28;1.87;;;1.57;;
5722;SDS011;2886;49.722;8.612;2023-04-23T13:28:56;1.60;;;1.50;;
5722;SDS011;2886;49.722;8.612;2023-04-23T13:31:24;1.53;;;1.43;;
5722;SDS011;2886;49.722;8.612;2023-04-23T13:33:53;2.87;;;1.90;;
5722;SDS011;2886;49.722;8.612;2023-04-23T13:36:19;2.47;;;1.33;;
5722;SDS011;2886;49.722;8.612;2023-04-23T13:38:45;1.50;;;1.40;;
5722;SDS011;2886;49.722;8.612;2023-04-23T13:41:11;1.93;;;1.40;;
5722;SDS011;2886;49.722;8.612;2023-04-23T13:43:37;1.83;;;1.50;;
5722;SDS011;2886;49.722;8.612;2023-04-23T13:46:03;3.13;;;1.30;;
5722;SDS011;2886;49.722;8.612;2023-04-23T13:48:29;1.60;;;1.50;;
5722;SDS011;2886;49.722;8.612;2023-04-23T13:50:57;1.47;;;1.37;;
5722;SDS011;2886;49.722;8.612;2023-04-23T13:53:24;4.13;;;1.70;;
5722;SDS011;2886;49.722;8.612;2023-04-23T13:55:51;2.73;;;1.43;;
5722;SDS011;2886;49.722;8.612;2023-04-23T13:58:17;1.57;;;1.47;;
5722;SDS011;2886;49.722;8.612;2023-04-23T14:00:46;1.73;;;1.20;;
5722;SDS011;2886;49.722;8.612;2023-04-23T14:03:11;1.53;;;1.43;;
5722;SDS011;2886;49.722;8.612;2023-04-23T14:05:37;2.73;;;1.70;;
5722;SDS011;2886;49.722;8.612;2023-04-23T14:08:03;1.70;;;1.50;;
5722;SDS011;2886;49.722;8.612;2023-04-23T14:10:31;2.07;;;1.50;;
5722;SDS011;2886;49.722;8.612;2023-04-23T14:12:58;1.80;;;1.63;;
5722;SDS011;2886;49.722;8.612;2023-04-23T14:15:23;2.07;;;1.30;;
5722;SDS011;2886;49.722;8.612;2023-04-23T14:17:49;1.60;;;1.37;;
5722;SDS011;2886;49.722;8.612;2023-04-23T14:20:18;1.70;;;1.43;;
5722;SDS011;2886;49.722;8.612;2023-04-23T14:22:48;2.27;;;1.43;;
5722;SDS011;2886;49.722;8.612;2023-04-23T14:25:22;1.43;;;1.20;;
5722;SDS011;2886;49.722;8.612;2023-04-23T14:27:50;2.13;;;1.80;;
5722;SDS011;2886;49.722;8.612;2023-04-23T14:30:19;1.20;;;1.10;;
5722;SDS011;2886;49.722;8.612;2023-04-23T14:32:46;1.30;;;1.20;;
5722;SDS011;2886;49.722;8.612;2023-04-23T14:35:14;2.40;;;1.67;;
5722;SDS011;2886;49.722;8.612;2023-04-23T14:37:41;1.30;;;1.20;;
5722;SDS011;2886;49.722;8.612;2023-04-23T14:40:09;9.20;;;1.37;;
5722;SDS011;2886;49.722;8.612;2023-04-23T14:42:37;1.47;;;1.37;;
5722;SDS011;2886;49.722;8.612;2023-04-23T14:45:05;3.93;;;1.60;;
5722;SDS011;2886;49.722;8.612;2023-04-23T14:47:32;1.60;;;1.47;;
5722;SDS011;2886;49.722;8.612;2023-04-23T14:49:57;1.40;;;1.30;;
5722;SDS011;2886;49.722;8.612;2023-04-23T14:52:25;1.77;;;1.30;;
5722;SDS011;2886;49.722;8.612;2023-04-23T14:54:51;7.13;;;1.37;;
5722;SDS011;2886;49.722;8.612;2023-04-23T14:57:19;3.27;;;1.60;;
5722;SDS011;2886;49.722;8.612;2023-04-23T14:59:45;1.87;;;1.40;;
5722;SDS011;2886;49.722;8.612;2023-04-23T15:02:11;1.40;;;1.30;;
5722;SDS011;2886;49.722;8.612;2023-04-23T15:04:37;1.97;;;1.50;;
5722;SDS011;2886;49.722;8.612;2023-04-23T15:07:02;1.13;;;1.03;;
5722;SDS011;2886;49.722;8.612;2023-04-23T15:09:28;2.10;;;1.50;;
5722;SDS011;2886;49.722;8.612;2023-04-23T15:11:53;2.90;;;1.50;;
5722;SDS011;2886;49.722;8.612;2023-04-23T15:14:40;1.57;;;1.47;;
5722;SDS011;2886;49.722;8.612;2023-04-23T15:17:07;2.23;;;1.40;;
5722;SDS011;2886;49.722;8.612;2023-04-23T15:19:34;1.50;;;1.40;;
5722;SDS011;2886;49.722;8.612;2023-04-23T15:22:00;1.47;;;1.33;;
5722;SDS011;2886;49.722;8.612;2023-04-23T15:24:28;1.27;;;1.17;;
5722;SDS011;2886;49.722;8.612;2023-04-23T15:26:54;2.80;;;1.30;;
5722;SDS011;2886;49.722;8.612;2023-04-23T15:29:22;1.47;;;1.13;;